createdAt,value
2018-06-23T00:00:22.357Z,13.10
2018-06-23T00:02:49.891Z,13.00
2018-06-23T00:05:18.121Z,13.00
2018-06-23T00:07:45.731Z,13.00
2018-06-23T00:10:13.300Z,13.00
2018-06-23T00:12:40.849Z,12.90
2018-06-23T00:15:08.490Z,12.90
2018-06-23T00:17:36.066Z,13.00
2018-06-23T00:20:03.912Z,13.00
2018-06-23T00:22:31.495Z,12.90
2018-06-23T00:24:59.491Z,12.90
2018-06-23T00:27:27.087Z,12.90
2018-06-23T00:29:54.682Z,12.90
2018-06-23T00:32:22.218Z,12.80
2018-06-23T00:34:49.779Z,12.80
2018-06-23T00:37:17.328Z,12.80
2018-06-23T00:39:44.869Z,12.80
2018-06-23T00:42:12.408Z,12.90
2018-06-23T00:44:40.049Z,12.90
2018-06-23T00:47:07.663Z,12.80
2018-06-23T00:49:35.256Z,12.80
2018-06-23T00:52:02.869Z,12.70
2018-06-23T00:54:30.494Z,12.50
2018-06-23T00:56:58.006Z,12.50
2018-06-23T00:59:42.388Z,12.40
2018-06-23T01:02:10.784Z,12.40
2018-06-23T01:04:38.326Z,12.40
2018-06-23T01:07:07.091Z,12.40
2018-06-23T01:09:34.702Z,12.30
2018-06-23T01:12:02.426Z,12.30
2018-06-23T01:14:30.035Z,12.20
2018-06-23T01:16:57.622Z,12.10
2018-06-23T01:19:25.358Z,12.00
2018-06-23T01:21:54.187Z,12.00
2018-06-23T01:24:21.742Z,11.90
2018-06-23T01:26:49.351Z,11.90
2018-06-23T01:29:17.129Z,11.90
2018-06-23T01:31:44.661Z,11.90
2018-06-23T01:34:12.190Z,11.80
2018-06-23T01:36:39.744Z,11.80
2018-06-23T01:39:09.178Z,11.80
2018-06-23T01:41:36.761Z,11.70
2018-06-23T01:44:04.480Z,11.70
2018-06-23T01:46:32.013Z,11.70
2018-06-23T01:48:59.592Z,11.70
2018-06-23T01:51:27.239Z,11.70
2018-06-23T01:53:54.808Z,11.70
2018-06-23T01:56:22.396Z,11.70
2018-06-23T01:58:49.949Z,11.70
2018-06-23T02:01:17.753Z,11.70
2018-06-23T02:03:45.771Z,11.60
2018-06-23T02:06:13.405Z,11.60
2018-06-23T02:08:41.452Z,11.50
2018-06-23T02:11:08.966Z,11.50
2018-06-23T02:13:36.568Z,11.50
2018-06-23T02:16:10.222Z,11.50
2018-06-23T02:18:43.426Z,11.50
2018-06-23T02:21:16.453Z,11.50
2018-06-23T02:23:49.663Z,11.50
2018-06-23T02:26:22.820Z,11.50
2018-06-23T02:28:56.089Z,11.40
2018-06-23T02:31:29.343Z,11.40
2018-06-23T02:34:02.632Z,11.30
2018-06-23T02:36:30.200Z,11.20
2018-06-23T02:38:57.752Z,11.20
2018-06-23T02:41:28.928Z,11.20
2018-06-23T02:43:56.691Z,11.10
2018-06-23T02:46:24.217Z,11.10
2018-06-23T02:48:51.778Z,11.10
2018-06-23T02:51:19.959Z,11.10
2018-06-23T02:53:48.219Z,11.10
2018-06-23T02:56:15.726Z,11.10
2018-06-23T02:58:43.264Z,11.10
2018-06-23T03:01:10.785Z,11.00
2018-06-23T03:03:38.406Z,11.10
2018-06-23T03:06:06.035Z,11.10
2018-06-23T03:08:33.581Z,11.10
2018-06-23T03:11:01.218Z,11.10
2018-06-23T03:13:28.722Z,11.10
2018-06-23T03:15:56.279Z,11.20
2018-06-23T03:18:24.432Z,11.10
2018-06-23T03:20:53.063Z,11.20
2018-06-23T03:23:20.604Z,11.10
2018-06-23T03:25:48.145Z,11.10
2018-06-23T03:28:15.698Z,11.10
2018-06-23T03:30:43.211Z,11.00
2018-06-23T03:33:10.768Z,11.10
2018-06-23T03:35:38.339Z,11.00
2018-06-23T03:38:06.047Z,11.00
2018-06-23T03:40:33.631Z,11.00
2018-06-23T03:43:01.194Z,11.00
2018-06-23T03:45:28.763Z,11.00
2018-06-23T03:47:56.315Z,11.00
2018-06-23T03:50:23.913Z,11.00
2018-06-23T03:52:52.139Z,11.00
2018-06-23T03:55:19.662Z,11.00
2018-06-23T03:57:47.232Z,11.00
2018-06-23T04:00:14.768Z,11.10
2018-06-23T04:02:42.330Z,11.00
2018-06-23T04:07:37.369Z,11.00
2018-06-23T04:10:04.997Z,10.90
2018-06-23T04:12:32.567Z,10.90
2018-06-23T04:15:00.085Z,11.00
2018-06-23T04:17:27.672Z,11.00
2018-06-23T04:19:56.348Z,11.00
2018-06-23T04:22:23.931Z,11.00
2018-06-23T04:24:51.516Z,11.10
2018-06-23T04:27:19.110Z,11.10
2018-06-23T04:29:46.674Z,11.20
2018-06-23T04:32:14.511Z,11.30
2018-06-23T04:34:42.118Z,11.40
2018-06-23T04:39:37.159Z,11.50
2018-06-23T04:42:04.733Z,11.60
2018-06-23T04:44:32.618Z,11.70
2018-06-23T04:47:00.959Z,11.70
2018-06-23T04:49:28.515Z,11.80
2018-06-23T04:54:23.584Z,11.90
2018-06-23T04:56:51.132Z,11.90
2018-06-23T04:59:18.667Z,12.00
2018-06-23T05:01:46.195Z,12.00
2018-06-23T05:06:41.188Z,12.20
2018-06-23T05:09:08.731Z,12.30
2018-06-23T05:11:36.322Z,12.40
2018-06-23T05:14:03.965Z,12.50
2018-06-23T05:16:31.511Z,12.60
2018-06-23T05:18:59.106Z,12.70
2018-06-23T05:21:26.704Z,12.90
2018-06-23T05:23:54.776Z,13.00
2018-06-23T05:26:22.394Z,13.00
2018-06-23T05:31:17.454Z,13.30
2018-06-23T05:33:45.430Z,13.40
2018-06-23T05:36:13.777Z,13.60
2018-06-23T05:38:41.359Z,13.60
2018-06-23T05:41:08.951Z,13.80
2018-06-23T05:43:36.487Z,13.80
2018-06-23T05:46:04.095Z,14.00
2018-06-23T05:48:31.650Z,14.20
2018-06-23T05:50:59.208Z,14.40
2018-06-23T05:53:26.745Z,14.60
2018-06-23T05:55:54.332Z,14.80
2018-06-23T05:58:21.887Z,14.80
2018-06-23T06:00:49.510Z,14.80
2018-06-23T06:03:17.126Z,14.90
2018-06-23T06:05:44.701Z,15.00
2018-06-23T06:08:12.268Z,15.10
2018-06-23T06:10:39.836Z,15.10
2018-06-23T06:13:07.933Z,15.20
2018-06-23T06:15:35.512Z,15.30
2018-06-23T06:18:03.149Z,15.30
2018-06-23T06:20:30.743Z,15.40
2018-06-23T06:22:58.368Z,15.40
2018-06-23T06:25:25.961Z,15.50
2018-06-23T06:27:53.572Z,15.60
2018-06-23T06:30:21.168Z,15.60
2018-06-23T06:32:48.797Z,15.60
2018-06-23T06:35:16.424Z,15.70
2018-06-23T06:37:43.987Z,15.80
2018-06-23T06:40:11.579Z,15.80
2018-06-23T06:42:39.206Z,16.00
2018-06-23T06:45:07.028Z,16.10
2018-06-23T06:47:34.612Z,16.20
2018-06-23T06:50:02.343Z,16.30
2018-06-23T06:52:29.966Z,16.30
2018-06-23T06:54:57.711Z,16.30
2018-06-23T06:59:53.621Z,16.40
2018-06-23T07:02:21.841Z,16.40
2018-06-23T07:04:49.417Z,16.50
2018-06-23T07:07:17.020Z,16.60
2018-06-23T07:09:44.609Z,16.70
2018-06-23T07:12:12.210Z,16.80
2018-06-23T07:14:39.816Z,16.90
2018-06-23T07:17:07.429Z,16.90
2018-06-23T07:19:35.014Z,16.90
2018-06-23T07:22:02.571Z,16.90
2018-06-23T07:24:30.153Z,17.00
2018-06-23T07:29:25.193Z,17.10
2018-06-23T07:31:52.960Z,17.20
2018-06-23T07:34:20.627Z,17.40
2018-06-23T07:36:48.200Z,17.50
2018-06-23T07:39:15.847Z,17.80
2018-06-23T07:41:43.389Z,18.00
2018-06-23T07:44:10.939Z,18.10
2018-06-23T07:46:39.462Z,18.20
2018-06-23T07:49:07.595Z,18.30
2018-06-23T07:51:35.179Z,18.40
2018-06-23T07:54:02.747Z,18.40
2018-06-23T07:56:30.941Z,18.30
2018-06-23T07:58:58.522Z,18.30
2018-06-23T08:01:26.192Z,18.40
2018-06-23T08:03:53.877Z,18.50
2018-06-23T08:06:21.436Z,18.40
2018-06-23T08:11:16.541Z,18.10
2018-06-23T08:13:44.093Z,18.10
2018-06-23T08:16:11.693Z,18.00
2018-06-23T08:18:39.352Z,17.90
2018-06-23T08:21:06.896Z,18.00
2018-06-23T08:23:34.446Z,18.00
2018-06-23T08:26:01.990Z,17.90
2018-06-23T08:28:29.591Z,17.70
2018-06-23T08:30:57.179Z,17.90
2018-06-23T08:33:24.770Z,18.20
2018-06-23T08:35:52.337Z,18.40
2018-06-23T08:38:19.992Z,18.80
2018-06-23T08:40:47.628Z,19.00
2018-06-23T08:43:15.170Z,19.00
2018-06-23T08:45:42.958Z,18.90
2018-06-23T08:48:10.537Z,18.90
2018-06-23T08:50:38.150Z,19.00
2018-06-23T08:53:06.595Z,19.20
2018-06-23T08:58:01.680Z,20.00
2018-06-23T09:00:29.239Z,20.30
2018-06-23T09:02:56.835Z,20.50
2018-06-23T09:05:24.448Z,20.60
2018-06-23T09:07:52.089Z,20.40
2018-06-23T09:10:19.713Z,20.20
2018-06-23T09:12:48.253Z,20.30
2018-06-23T09:15:15.851Z,20.50
2018-06-23T09:17:43.575Z,20.60
2018-06-23T09:20:13.050Z,20.70
2018-06-23T09:22:40.710Z,20.90
2018-06-23T09:25:08.322Z,21.00
2018-06-23T09:27:36.567Z,21.10
2018-06-23T09:30:05.357Z,21.10
2018-06-23T09:32:32.934Z,21.10
2018-06-23T09:35:00.490Z,21.20
2018-06-23T09:37:28.099Z,21.40
2018-06-23T09:39:55.643Z,21.50
2018-06-23T09:44:51.711Z,22.00
2018-06-23T09:47:19.645Z,22.20
2018-06-23T09:49:47.222Z,22.30
2018-06-23T09:52:14.809Z,22.40
2018-06-23T09:54:42.334Z,22.10
2018-06-23T09:57:09.900Z,21.80
2018-06-23T09:59:38.548Z,21.70
2018-06-23T10:02:06.248Z,21.60
2018-06-23T10:04:33.920Z,21.80
2018-06-23T10:07:01.711Z,21.90
2018-06-23T10:09:29.264Z,22.00
2018-06-23T10:11:56.858Z,22.20
2018-06-23T10:14:24.464Z,22.30
2018-06-23T10:16:52.073Z,22.60
2018-06-23T10:19:19.684Z,23.00
2018-06-23T10:21:47.262Z,23.20
2018-06-23T10:24:14.819Z,23.40
2018-06-23T10:26:42.403Z,23.50
2018-06-23T10:29:09.973Z,23.70
2018-06-23T10:31:37.604Z,23.70
2018-06-23T10:34:05.496Z,23.60
2018-06-23T10:36:33.184Z,23.40
2018-06-23T10:39:00.758Z,23.30
2018-06-23T10:41:28.302Z,23.10
2018-06-23T10:43:55.854Z,22.90
2018-06-23T10:46:23.450Z,22.80
2018-06-23T10:48:51.059Z,23.10
2018-06-23T10:51:18.687Z,23.70
2018-06-23T10:53:46.253Z,24.00
2018-06-23T10:56:13.829Z,23.90
2018-06-23T10:58:41.477Z,23.80
2018-06-23T11:01:09.083Z,23.90
2018-06-23T11:06:04.302Z,24.50
2018-06-23T11:08:31.871Z,24.70
2018-06-23T11:10:59.381Z,24.80
2018-06-23T11:13:26.952Z,24.60
2018-06-23T11:15:54.602Z,24.60
2018-06-23T11:18:22.190Z,24.60
2018-06-23T11:20:49.835Z,24.40
2018-06-23T11:23:17.412Z,24.60
2018-06-23T11:25:44.986Z,24.60
2018-06-23T11:28:13.167Z,24.60
2018-06-23T11:30:41.765Z,24.90
2018-06-23T11:33:09.342Z,25.10
2018-06-23T11:35:36.928Z,25.20
2018-06-23T11:38:04.557Z,25.00
2018-06-23T11:40:32.157Z,25.20
2018-06-23T11:42:59.712Z,25.30
2018-06-23T11:45:27.327Z,26.70
2018-06-23T11:47:54.873Z,29.40
2018-06-23T11:50:22.514Z,32.60
2018-06-23T11:52:50.127Z,35.50
2018-06-23T11:55:17.737Z,37.80
2018-06-23T11:57:45.348Z,40.20
2018-06-23T12:00:12.960Z,42.30
2018-06-23T12:02:40.534Z,44.00
2018-06-23T12:07:37.235Z,45.60
2018-06-23T12:10:04.942Z,46.40
2018-06-23T12:12:32.538Z,47.20
2018-06-23T12:15:00.159Z,47.50
2018-06-23T12:17:27.837Z,45.30
2018-06-23T12:19:55.430Z,43.90
2018-06-23T12:22:23.071Z,44.50
2018-06-23T12:24:50.704Z,45.60
2018-06-23T12:29:45.802Z,42.60
2018-06-23T12:32:13.403Z,39.90
2018-06-23T12:34:40.976Z,37.40
2018-06-23T12:37:08.601Z,37.60
2018-06-23T12:39:36.210Z,40.30
2018-06-23T12:42:03.835Z,43.10
2018-06-23T12:44:31.390Z,45.60
2018-06-23T12:46:58.992Z,47.20
2018-06-23T12:49:26.597Z,47.90
2018-06-23T12:51:54.191Z,48.10
2018-06-23T12:54:21.761Z,48.50
2018-06-23T12:56:49.338Z,48.00
2018-06-23T12:59:16.920Z,46.40
2018-06-23T13:01:44.502Z,44.90
2018-06-23T13:04:12.052Z,44.10
2018-06-23T13:06:39.669Z,44.50
2018-06-23T13:09:09.354Z,45.50
2018-06-23T13:11:36.964Z,46.40
2018-06-23T13:14:04.748Z,46.80
2018-06-23T13:16:32.415Z,47.40
2018-06-23T13:18:59.986Z,47.30
2018-06-23T13:21:27.712Z,46.50
2018-06-23T13:23:55.268Z,46.20
2018-06-23T13:26:24.503Z,46.60
2018-06-23T13:28:52.127Z,46.00
2018-06-23T13:31:19.692Z,44.20
2018-06-23T13:33:47.331Z,43.00
2018-06-23T13:36:14.955Z,42.70
2018-06-23T13:38:42.544Z,43.30
2018-06-23T13:41:10.976Z,44.40
2018-06-23T13:43:38.535Z,45.30
2018-06-23T13:46:06.161Z,45.60
2018-06-23T13:48:33.726Z,45.70
2018-06-23T13:51:01.477Z,45.40
2018-06-23T13:53:29.171Z,45.10
2018-06-23T13:55:56.796Z,44.40
2018-06-23T13:58:24.371Z,43.30
2018-06-23T14:00:52.032Z,41.20
2018-06-23T14:03:19.711Z,38.60
2018-06-23T14:05:47.225Z,36.60
2018-06-23T14:08:14.935Z,35.50
2018-06-23T14:10:42.503Z,34.80
2018-06-23T14:13:10.079Z,34.00
2018-06-23T14:15:37.724Z,33.60
2018-06-23T14:18:05.377Z,33.80
2018-06-23T14:20:32.977Z,34.50
2018-06-23T14:23:00.589Z,35.20
2018-06-23T14:25:28.171Z,35.90
2018-06-23T14:27:55.768Z,36.40
2018-06-23T14:30:23.376Z,38.00
2018-06-23T14:32:51.953Z,39.80
2018-06-23T14:35:19.574Z,41.20
2018-06-23T14:37:47.191Z,42.10
2018-06-23T14:40:15.800Z,42.10
2018-06-23T14:42:43.394Z,41.40
2018-06-23T14:45:11.006Z,39.80
2018-06-23T14:47:38.631Z,38.40
2018-06-23T14:50:06.193Z,38.80
2018-06-23T14:52:33.802Z,40.30
2018-06-23T14:55:01.477Z,41.30
2018-06-23T14:57:29.093Z,41.90
2018-06-23T14:59:56.696Z,42.30
2018-06-23T15:02:24.288Z,42.60
2018-06-23T15:04:51.880Z,42.50
2018-06-23T15:07:19.472Z,41.80
2018-06-23T15:09:58.438Z,40.20
2018-06-23T15:12:37.360Z,37.90
2018-06-23T15:15:05.562Z,36.50
2018-06-23T15:17:33.129Z,36.80
2018-06-23T15:20:00.712Z,37.80
2018-06-23T15:22:28.308Z,38.80
2018-06-23T15:24:55.908Z,39.40
2018-06-23T15:27:23.521Z,37.90
2018-06-23T15:29:51.127Z,36.10
2018-06-23T15:32:18.657Z,36.00
2018-06-23T15:34:46.202Z,36.00
2018-06-23T15:37:13.846Z,35.60
2018-06-23T15:39:41.411Z,34.50
2018-06-23T15:42:09.860Z,33.40
2018-06-23T15:44:37.466Z,32.60
2018-06-23T15:47:05.144Z,32.50
2018-06-23T15:49:33.245Z,32.70
2018-06-23T15:52:00.866Z,32.90
2018-06-23T15:54:32.669Z,32.60
2018-06-23T15:57:01.983Z,31.70
2018-06-23T15:59:30.110Z,30.90
2018-06-23T16:01:58.643Z,30.50
2018-06-23T16:04:26.269Z,30.50
2018-06-23T16:06:56.833Z,30.90
2018-06-23T16:09:24.408Z,31.00
2018-06-23T16:11:54.165Z,31.00
2018-06-23T16:14:21.749Z,31.00
2018-06-23T16:16:49.288Z,30.70
2018-06-23T16:19:19.672Z,30.10
2018-06-23T16:21:51.514Z,29.60
2018-06-23T16:24:25.984Z,29.10
2018-06-23T16:26:53.545Z,28.60
2018-06-23T16:29:21.133Z,28.20
2018-06-23T16:34:16.212Z,28.00
2018-06-23T16:36:43.817Z,27.80
2018-06-23T16:39:11.531Z,27.60
2018-06-23T16:41:39.191Z,27.50
2018-06-23T16:44:07.017Z,27.30
2018-06-23T16:46:34.695Z,27.20
2018-06-23T16:49:02.400Z,26.90
2018-06-23T16:51:30.042Z,26.70
2018-06-23T16:53:57.620Z,26.50
2018-06-23T16:56:25.183Z,26.10
2018-06-23T16:58:52.743Z,25.80
2018-06-23T17:01:20.321Z,25.50
2018-06-23T17:06:16.459Z,25.00
2018-06-23T17:08:43.995Z,24.80
2018-06-23T17:11:12.326Z,24.50
2018-06-23T17:13:39.861Z,24.40
2018-06-23T17:16:07.495Z,24.50
2018-06-23T17:18:35.090Z,24.60
2018-06-23T17:21:02.704Z,24.50
2018-06-23T17:23:30.310Z,24.40
2018-06-23T17:25:57.890Z,24.20
2018-06-23T17:28:25.456Z,24.00
2018-06-23T17:30:53.004Z,23.90
2018-06-23T17:33:20.568Z,23.80
2018-06-23T17:35:48.171Z,23.60
2018-06-23T17:38:15.715Z,23.70
2018-06-23T17:40:43.263Z,23.70
2018-06-23T17:43:10.849Z,23.50
2018-06-23T17:45:38.461Z,23.60
2018-06-23T17:48:06.096Z,23.50
2018-06-23T17:50:33.668Z,23.40
2018-06-23T17:53:01.262Z,23.40
2018-06-23T17:55:28.835Z,23.30
2018-06-23T17:57:56.707Z,23.30
2018-06-23T18:00:24.036Z,23.30
2018-06-23T18:02:51.632Z,23.20
2018-06-23T18:05:19.818Z,23.20
2018-06-23T18:07:47.454Z,23.20
2018-06-23T18:10:15.116Z,23.20
2018-06-23T18:12:42.704Z,23.10
2018-06-23T18:15:10.335Z,22.90
2018-06-23T18:17:37.903Z,22.80
2018-06-23T18:20:05.774Z,22.80
2018-06-23T18:22:33.410Z,22.70
2018-06-23T18:25:01.024Z,22.60
2018-06-23T18:27:28.608Z,22.50
2018-06-23T18:29:56.169Z,22.40
2018-06-23T18:32:23.800Z,22.20
2018-06-23T18:34:51.479Z,22.20
2018-06-23T18:37:19.062Z,22.10
2018-06-23T18:39:46.669Z,21.90
2018-06-23T18:42:14.309Z,21.80
2018-06-23T18:44:41.899Z,21.70
2018-06-23T18:47:09.560Z,21.70
2018-06-23T18:49:37.181Z,21.60
2018-06-23T18:52:04.993Z,21.50
2018-06-23T18:54:32.658Z,21.40
2018-06-23T18:57:00.291Z,21.40
2018-06-23T18:59:27.889Z,21.30
2018-06-23T19:01:55.536Z,21.20
2018-06-23T19:04:23.129Z,21.20
2018-06-23T19:06:50.736Z,21.10
2018-06-23T19:09:18.538Z,21.10
2018-06-23T19:11:46.023Z,21.00
2018-06-23T19:14:13.669Z,20.90
2018-06-23T19:16:41.332Z,20.90
2018-06-23T19:19:08.954Z,20.80
2018-06-23T19:21:36.638Z,20.70
2018-06-23T19:24:04.251Z,20.60
2018-06-23T19:26:31.814Z,20.50
2018-06-23T19:28:59.468Z,20.40
2018-06-23T19:31:27.150Z,20.30
2018-06-23T19:33:54.764Z,20.20
2018-06-23T19:36:22.341Z,20.10
2018-06-23T19:38:49.896Z,20.00
2018-06-23T19:41:20.140Z,20.00
2018-06-23T19:43:47.750Z,19.90
2018-06-23T19:46:15.814Z,20.00
2018-06-23T19:48:43.460Z,20.00
2018-06-23T19:51:11.090Z,20.00
2018-06-23T19:53:38.758Z,20.00
2018-06-23T19:56:06.314Z,19.90
2018-06-23T19:58:34.089Z,19.90
2018-06-23T20:01:01.717Z,19.90
2018-06-23T20:03:29.285Z,19.80
2018-06-23T20:05:56.925Z,19.80
2018-06-23T20:08:24.500Z,19.70
2018-06-23T20:10:52.103Z,19.60
2018-06-23T20:13:19.785Z,19.50
2018-06-23T20:15:47.395Z,19.50
2018-06-23T20:18:14.964Z,19.40
2018-06-23T20:20:42.546Z,19.30
2018-06-23T20:23:10.130Z,19.20
2018-06-23T20:25:37.710Z,19.10
2018-06-23T20:28:05.301Z,19.20
2018-06-23T20:30:32.978Z,19.10
2018-06-23T20:33:00.503Z,19.00
2018-06-23T20:35:28.109Z,19.00
2018-06-23T20:37:55.708Z,19.00
2018-06-23T20:40:23.294Z,19.00
2018-06-23T20:42:50.931Z,19.00
2018-06-23T20:45:18.532Z,18.90
2018-06-23T20:47:46.126Z,18.80
2018-06-23T20:50:13.698Z,18.80
2018-06-23T20:52:41.303Z,18.80
2018-06-23T20:55:09.009Z,18.80
2018-06-23T20:57:36.625Z,18.80
2018-06-23T21:00:04.343Z,18.80
2018-06-23T21:02:32.203Z,18.80
2018-06-23T21:04:59.912Z,18.70
2018-06-23T21:07:27.667Z,18.70
2018-06-23T21:09:55.325Z,18.60
2018-06-23T21:12:23.007Z,18.50
2018-06-23T21:14:50.667Z,18.50
2018-06-23T21:17:18.272Z,18.50
2018-06-23T21:19:45.930Z,18.50
2018-06-23T21:22:13.596Z,18.40
2018-06-23T21:24:41.233Z,18.40
2018-06-23T21:27:09.852Z,18.30
2018-06-23T21:29:37.528Z,18.30
2018-06-23T21:32:06.022Z,18.30
2018-06-23T21:34:33.574Z,18.30
2018-06-23T21:37:01.169Z,18.10
2018-06-23T21:39:28.814Z,18.10
2018-06-23T21:41:56.446Z,18.10
2018-06-23T21:44:24.102Z,18.00
2018-06-23T21:46:51.914Z,18.00
2018-06-23T21:49:19.464Z,17.90
2018-06-23T21:51:47.140Z,17.90
2018-06-23T21:54:14.749Z,17.80
2018-06-23T21:56:42.357Z,17.80
2018-06-23T21:59:09.986Z,17.70
2018-06-23T22:01:37.586Z,17.60
2018-06-23T22:04:05.151Z,17.50
2018-06-23T22:06:32.751Z,17.40
2018-06-23T22:09:00.305Z,17.40
2018-06-23T22:11:27.979Z,17.40
2018-06-23T22:13:55.560Z,17.30
2018-06-23T22:16:25.275Z,17.30
2018-06-23T22:18:52.907Z,17.20
2018-06-23T22:21:20.494Z,17.10
2018-06-23T22:23:48.086Z,17.00
2018-06-23T22:26:15.659Z,17.00
2018-06-23T22:28:43.251Z,17.00
2018-06-23T22:31:10.789Z,17.10
2018-06-23T22:33:38.370Z,17.10
2018-06-23T22:36:06.036Z,17.10
2018-06-23T22:38:33.608Z,17.10
2018-06-23T22:41:01.187Z,17.10
2018-06-23T22:43:28.786Z,17.20
2018-06-23T22:45:56.354Z,17.20
2018-06-23T22:48:23.909Z,17.20
2018-06-23T22:50:51.556Z,17.10
2018-06-23T22:53:19.131Z,17.10
2018-06-23T22:55:46.867Z,17.10
2018-06-23T23:00:41.968Z,17.00
2018-06-23T23:03:09.543Z,17.00
2018-06-23T23:05:37.145Z,16.90
2018-06-23T23:08:04.799Z,16.80
2018-06-23T23:10:32.364Z,16.80
2018-06-23T23:12:59.976Z,16.70
2018-06-23T23:15:27.526Z,16.70
2018-06-23T23:17:55.138Z,16.60
2018-06-23T23:20:23.586Z,16.60
2018-06-23T23:22:51.135Z,16.60
2018-06-23T23:25:19.266Z,16.60
2018-06-23T23:27:46.845Z,16.60
2018-06-23T23:30:14.455Z,16.50
2018-06-23T23:32:42.058Z,16.50
2018-06-23T23:35:09.605Z,16.50
2018-06-23T23:37:37.171Z,16.40
2018-06-23T23:40:04.901Z,16.40
2018-06-23T23:42:32.444Z,16.40
2018-06-23T23:44:59.972Z,16.40
2018-06-23T23:47:27.552Z,16.30
2018-06-23T23:49:55.175Z,16.20
2018-06-23T23:52:22.723Z,16.10
2018-06-23T23:54:50.279Z,16.10
2018-06-23T23:57:17.876Z,16.10
2018-06-23T23:59:45.469Z,16.00
